Impacts METAR Board
IDs:

KDKR - Crockett/Houston Cnt, TX, US

Updated at: 0500 UTC 19 Aug 2019
Potential Impact None Slight Moderate High
Time 18/17Z 18/18Z 18/19Z 18/20Z 18/21Z 18/22Z 18/23Z 19/00Z 19/01Z 19/02Z 19/03Z 19/04Z 19/05Z
Temp91 95 95 99 99 99 99 95 91 88 86 84 82
Dewpt73 73 73 72 72 70 70 72 75 77 77 77 77
Altim29.97 29.96 29.94 29.92 29.90 29.89 29.89 29.88 29.89 29.91 29.93 29.96 29.98
VIS10 10 10 10 10 10 10 10 10 10 10 10 10
CIG-- -- -- -- -- -- -- -- -- -- -- -- --
CoverFEWCLRFEW--CLRCLRCLRCLRCLRFEWCLRCLRCLR
FltCatVFRVFRVFRVFRVFRVFRVFRVFRVFRVFRVFRVFRVFR
WX--------------------------
WDir200210210180170901601701501301601600
WSpd10 5 7 6 5 4 5 6 7 7 7 5 0
WGst14 14 -- -- -- -- -- -- -- -- -- -- --
Raw hourly METARs
KDKR 181650Z AUTO 20010G14KT 10SM FEW035 33/23 A2997 RMK AO2 PWINO
KDKR 181750Z AUTO 21005G14KT 10SM CLR 35/23 A2996 RMK AO2 PWINO
KDKR 181850Z AUTO 21007KT 10SM FEW046 35/23 A2994 RMK AO2 PWINO
KDKR 181950Z AUTO 18006KT 10SM 37/22 A2992 RMK AO2 PWINO
KDKR 182050Z AUTO 17005KT 10SM CLR 37/22 A2990 RMK AO2 PWINO
KDKR 182150Z AUTO 09004KT 10SM CLR 37/21 A2989 RMK AO2 PWINO
KDKR 182250Z AUTO 16005KT 10SM CLR 37/21 A2989 RMK AO2 PWINO
KDKR 182350Z AUTO 17006KT 10SM CLR 35/22 A2988 RMK AO2 PWINO
KDKR 190050Z AUTO 15007KT 10SM CLR 33/24 A2989 RMK AO2 PWINO
KDKR 190150Z AUTO 13007KT 10SM FEW060 31/25 A2991 RMK AO2 PWINO
KDKR 190250Z AUTO 16007KT 10SM CLR 30/25 A2993 RMK AO2 PWINO
KDKR 190350Z AUTO 16005KT 10SM CLR 29/25 A2996 RMK AO2 PWINO
KDKR 190450Z AUTO 00000KT 10SM CLR 28/25 A2998 RMK AO2 PWINO



Page loaded:  05:54 UTC  |   10:54 PM Pacific  |   11:54 PM Mountain  |   12:54 AM Central  |   01:54 AM Eastern

 

ADVISORIES

FORECASTS

FORECASTS

OBSERVATIONS

USER TOOLS

ABOUT US